sensor_id;sensor_type;location;lat;lon;timestamp;P1;durP1;ratioP1;P2;durP2;ratioP2
43817;SDS011;29868;47.360;18.984;2024-03-23T14:56:35;5.53;;;2.20;;
43817;SDS011;29868;47.360;18.984;2024-03-23T14:59:00;3.20;;;2.05;;
43817;SDS011;29868;47.360;18.984;2024-03-23T15:01:26;3.38;;;1.90;;
43817;SDS011;29868;47.360;18.984;2024-03-23T15:03:51;3.38;;;2.30;;
43817;SDS011;29868;47.360;18.984;2024-03-23T15:06:18;4.00;;;2.40;;
43817;SDS011;29868;47.360;18.984;2024-03-23T15:08:44;3.35;;;2.30;;
43817;SDS011;29868;47.360;18.984;2024-03-23T15:11:10;4.60;;;2.30;;
43817;SDS011;29868;47.360;18.984;2024-03-23T15:13:36;5.07;;;2.38;;
43817;SDS011;29868;47.360;18.984;2024-03-23T15:16:03;5.75;;;2.45;;
43817;SDS011;29868;47.360;18.984;2024-03-23T15:18:29;5.32;;;2.80;;
43817;SDS011;29868;47.360;18.984;2024-03-23T15:20:58;3.33;;;2.30;;
43817;SDS011;29868;47.360;18.984;2024-03-23T15:23:30;4.45;;;2.47;;
43817;SDS011;29868;47.360;18.984;2024-03-23T15:25:56;4.72;;;2.50;;
43817;SDS011;29868;47.360;18.984;2024-03-23T15:28:25;4.78;;;3.10;;
43817;SDS011;29868;47.360;18.984;2024-03-23T15:31:18;6.18;;;3.30;;
43817;SDS011;29868;47.360;18.984;2024-03-23T15:33:43;5.65;;;3.85;;
43817;SDS011;29868;47.360;18.984;2024-03-23T15:36:09;5.40;;;3.20;;
43817;SDS011;29868;47.360;18.984;2024-03-23T15:38:34;6.25;;;2.90;;
43817;SDS011;29868;47.360;18.984;2024-03-23T15:41:00;4.28;;;2.78;;
43817;SDS011;29868;47.360;18.984;2024-03-23T15:43:25;5.20;;;3.05;;
43817;SDS011;29868;47.360;18.984;2024-03-23T15:45:55;5.75;;;4.03;;
43817;SDS011;29868;47.360;18.984;2024-03-23T15:48:25;9.65;;;3.70;;
43817;SDS011;29868;47.360;18.984;2024-03-23T15:50:55;7.15;;;3.70;;
43817;SDS011;29868;47.360;18.984;2024-03-23T15:53:22;5.07;;;3.22;;
43817;SDS011;29868;47.360;18.984;2024-03-23T15:55:58;6.72;;;3.10;;
43817;SDS011;29868;47.360;18.984;2024-03-23T15:58:26;4.65;;;2.88;;
43817;SDS011;29868;47.360;18.984;2024-03-23T16:03:20;4.82;;;3.22;;
43817;SDS011;29868;47.360;18.984;2024-03-23T16:05:52;4.22;;;2.92;;
43817;SDS011;29868;47.360;18.984;2024-03-23T16:08:22;6.00;;;3.60;;
43817;SDS011;29868;47.360;18.984;2024-03-23T16:10:48;5.75;;;3.45;;
43817;SDS011;29868;47.360;18.984;2024-03-23T16:13:14;6.75;;;3.40;;
43817;SDS011;29868;47.360;18.984;2024-03-23T16:15:39;5.50;;;3.10;;
43817;SDS011;29868;47.360;18.984;2024-03-23T16:18:05;6.43;;;3.70;;
43817;SDS011;29868;47.360;18.984;2024-03-23T16:20:31;4.40;;;3.05;;
43817;SDS011;29868;47.360;18.984;2024-03-23T16:22:58;5.63;;;3.00;;
43817;SDS011;29868;47.360;18.984;2024-03-23T16:25:27;6.18;;;3.28;;
43817;SDS011;29868;47.360;18.984;2024-03-23T16:27:53;5.72;;;3.40;;
43817;SDS011;29868;47.360;18.984;2024-03-23T16:30:19;5.57;;;3.20;;
43817;SDS011;29868;47.360;18.984;2024-03-23T16:32:45;6.25;;;3.40;;
43817;SDS011;29868;47.360;18.984;2024-03-23T16:35:14;6.13;;;3.20;;
43817;SDS011;29868;47.360;18.984;2024-03-23T16:37:40;4.90;;;3.40;;
43817;SDS011;29868;47.360;18.984;2024-03-23T16:40:06;7.35;;;3.85;;
43817;SDS011;29868;47.360;18.984;2024-03-23T16:42:34;12.63;;;6.00;;
43817;SDS011;29868;47.360;18.984;2024-03-23T16:45:00;12.18;;;7.45;;
43817;SDS011;29868;47.360;18.984;2024-03-23T16:47:25;10.23;;;7.07;;
43817;SDS011;29868;47.360;18.984;2024-03-23T16:49:52;11.98;;;7.70;;
43817;SDS011;29868;47.360;18.984;2024-03-23T16:52:18;12.27;;;7.38;;
43817;SDS011;29868;47.360;18.984;2024-03-23T16:54:43;31.08;;;17.88;;
43817;SDS011;29868;47.360;18.984;2024-03-23T16:57:08;120.60;;;51.97;;
43817;SDS011;29868;47.360;18.984;2024-03-23T16:59:34;91.90;;;42.50;;
43817;SDS011;29868;47.360;18.984;2024-03-23T17:01:59;45.40;;;23.38;;
43817;SDS011;29868;47.360;18.984;2024-03-23T17:04:25;21.67;;;11.40;;
43817;SDS011;29868;47.360;18.984;2024-03-23T17:06:51;11.02;;;6.10;;
43817;SDS011;29868;47.360;18.984;2024-03-23T17:09:16;7.97;;;5.13;;
43817;SDS011;29868;47.360;18.984;2024-03-23T17:11:42;12.75;;;7.85;;
43817;SDS011;29868;47.360;18.984;2024-03-23T17:14:11;16.33;;;10.07;;
43817;SDS011;29868;47.360;18.984;2024-03-23T17:16:40;6.93;;;2.50;;
43817;SDS011;29868;47.360;18.984;2024-03-23T17:19:05;6.38;;;1.50;;
43817;SDS011;29868;47.360;18.984;2024-03-23T17:21:31;1.73;;;1.08;;
43817;SDS011;29868;47.360;18.984;2024-03-23T17:23:56;2.28;;;1.20;;
43817;SDS011;29868;47.360;18.984;2024-03-23T17:26:23;1.77;;;1.00;;
43817;SDS011;29868;47.360;18.984;2024-03-23T17:28:49;5.20;;;0.88;;
43817;SDS011;29868;47.360;18.984;2024-03-23T17:31:16;4.97;;;0.95;;
43817;SDS011;29868;47.360;18.984;2024-03-23T17:33:45;1.17;;;0.82;;
43817;SDS011;29868;47.360;18.984;2024-03-23T17:36:14;2.83;;;1.20;;
43817;SDS011;29868;47.360;18.984;2024-03-23T17:38:39;4.28;;;1.17;;
43817;SDS011;29868;47.360;18.984;2024-03-23T17:41:05;4.65;;;1.00;;
43817;SDS011;29868;47.360;18.984;2024-03-23T17:43:30;8.48;;;1.50;;
43817;SDS011;29868;47.360;18.984;2024-03-23T17:45:56;3.15;;;1.58;;
43817;SDS011;29868;47.360;18.984;2024-03-23T17:48:23;3.15;;;0.80;;
43817;SDS011;29868;47.360;18.984;2024-03-23T17:50:48;6.72;;;1.40;;
43817;SDS011;29868;47.360;18.984;2024-03-23T17:53:14;2.60;;;1.20;;
43817;SDS011;29868;47.360;18.984;2024-03-23T17:55:39;6.38;;;1.67;;
43817;SDS011;29868;47.360;18.984;2024-03-23T17:58:05;6.80;;;1.73;;
43817;SDS011;29868;47.360;18.984;2024-03-23T18:00:30;4.75;;;1.05;;
43817;SDS011;29868;47.360;18.984;2024-03-23T18:02:55;4.78;;;1.80;;
43817;SDS011;29868;47.360;18.984;2024-03-23T18:05:21;8.20;;;1.13;;
43817;SDS011;29868;47.360;18.984;2024-03-23T18:07:47;3.08;;;1.20;;
43817;SDS011;29868;47.360;18.984;2024-03-23T18:10:12;1.67;;;1.00;;
43817;SDS011;29868;47.360;18.984;2024-03-23T18:12:38;2.65;;;1.05;;
43817;SDS011;29868;47.360;18.984;2024-03-23T18:15:03;3.67;;;1.10;;
43817;SDS011;29868;47.360;18.984;2024-03-23T18:17:29;1.67;;;1.10;;
43817;SDS011;29868;47.360;18.984;2024-03-23T18:19:55;1.75;;;1.00;;
43817;SDS011;29868;47.360;18.984;2024-03-23T18:22:21;1.58;;;1.10;;
43817;SDS011;29868;47.360;18.984;2024-03-23T18:24:46;4.35;;;1.10;;
43817;SDS011;29868;47.360;18.984;2024-03-23T18:27:12;1.20;;;0.77;;
43817;SDS011;29868;47.360;18.984;2024-03-23T18:29:38;1.88;;;0.80;;
43817;SDS011;29868;47.360;18.984;2024-03-23T18:32:06;3.22;;;0.90;;
43817;SDS011;29868;47.360;18.984;2024-03-23T18:34:32;4.40;;;1.48;;
43817;SDS011;29868;47.360;18.984;2024-03-23T18:36:57;2.58;;;1.17;;
43817;SDS011;29868;47.360;18.984;2024-03-23T18:39:23;4.85;;;1.08;;
43817;SDS011;29868;47.360;18.984;2024-03-23T18:41:48;2.45;;;1.00;;
43817;SDS011;29868;47.360;18.984;2024-03-23T18:44:13;3.78;;;0.90;;
43817;SDS011;29868;47.360;18.984;2024-03-23T18:46:39;2.35;;;1.23;;
43817;SDS011;29868;47.360;18.984;2024-03-23T18:49:05;3.15;;;0.98;;
43817;SDS011;29868;47.360;18.984;2024-03-23T18:51:30;1.08;;;0.70;;
43817;SDS011;29868;47.360;18.984;2024-03-23T18:53:56;2.95;;;1.10;;
43817;SDS011;29868;47.360;18.984;2024-03-23T18:56:26;1.88;;;1.17;;
43817;SDS011;29868;47.360;18.984;2024-03-23T18:58:52;2.97;;;1.00;;
43817;SDS011;29868;47.360;18.984;2024-03-23T19:01:18;2.38;;;0.93;;
43817;SDS011;29868;47.360;18.984;2024-03-23T19:03:45;2.90;;;1.50;;
43817;SDS011;29868;47.360;18.984;2024-03-23T19:06:10;1.52;;;1.00;;
43817;SDS011;29868;47.360;18.984;2024-03-23T19:08:36;1.80;;;0.65;;
43817;SDS011;29868;47.360;18.984;2024-03-23T19:11:01;0.85;;;0.77;;
43817;SDS011;29868;47.360;18.984;2024-03-23T19:13:27;2.25;;;1.00;;
43817;SDS011;29868;47.360;18.984;2024-03-23T19:15:54;1.40;;;0.98;;
43817;SDS011;29868;47.360;18.984;2024-03-23T19:18:20;1.27;;;0.80;;
43817;SDS011;29868;47.360;18.984;2024-03-23T19:20:52;1.42;;;0.98;;
43817;SDS011;29868;47.360;18.984;2024-03-23T19:23:18;2.92;;;0.80;;
43817;SDS011;29868;47.360;18.984;2024-03-23T19:25:50;3.45;;;1.15;;
43817;SDS011;29868;47.360;18.984;2024-03-23T19:28:17;2.90;;;1.17;;
43817;SDS011;29868;47.360;18.984;2024-03-23T19:30:42;1.63;;;0.90;;
43817;SDS011;29868;47.360;18.984;2024-03-23T19:33:08;1.52;;;1.00;;
43817;SDS011;29868;47.360;18.984;2024-03-23T19:35:34;2.03;;;1.05;;
43817;SDS011;29868;47.360;18.984;2024-03-23T19:38:00;3.05;;;1.13;;
43817;SDS011;29868;47.360;18.984;2024-03-23T19:40:26;1.65;;;0.88;;
43817;SDS011;29868;47.360;18.984;2024-03-23T19:42:51;1.10;;;0.80;;
43817;SDS011;29868;47.360;18.984;2024-03-23T19:45:16;2.63;;;1.10;;
43817;SDS011;29868;47.360;18.984;2024-03-23T19:47:42;1.73;;;1.15;;
43817;SDS011;29868;47.360;18.984;2024-03-23T19:50:07;1.38;;;1.10;;
43817;SDS011;29868;47.360;18.984;2024-03-23T19:52:34;1.92;;;1.17;;
43817;SDS011;29868;47.360;18.984;2024-03-23T19:55:00;2.42;;;1.02;;
43817;SDS011;29868;47.360;18.984;2024-03-23T19:57:27;4.28;;;1.33;;
43817;SDS011;29868;47.360;18.984;2024-03-23T19:59:52;1.85;;;1.20;;
43817;SDS011;29868;47.360;18.984;2024-03-23T20:02:17;1.10;;;1.00;;
43817;SDS011;29868;47.360;18.984;2024-03-23T20:04:43;1.48;;;1.20;;
43817;SDS011;29868;47.360;18.984;2024-03-23T20:07:08;1.63;;;1.00;;
43817;SDS011;29868;47.360;18.984;2024-03-23T20:09:35;1.80;;;1.05;;
43817;SDS011;29868;47.360;18.984;2024-03-23T20:12:01;3.42;;;1.30;;
43817;SDS011;29868;47.360;18.984;2024-03-23T20:14:26;3.33;;;1.23;;
43817;SDS011;29868;47.360;18.984;2024-03-23T20:16:52;1.58;;;1.05;;
43817;SDS011;29868;47.360;18.984;2024-03-23T20:19:17;1.80;;;1.08;;
43817;SDS011;29868;47.360;18.984;2024-03-23T20:21:42;1.52;;;1.10;;
43817;SDS011;29868;47.360;18.984;2024-03-23T20:24:08;3.05;;;1.23;;
43817;SDS011;29868;47.360;18.984;2024-03-23T20:26:33;1.98;;;1.10;;
43817;SDS011;29868;47.360;18.984;2024-03-23T20:28:59;2.55;;;1.30;;
43817;SDS011;29868;47.360;18.984;2024-03-23T20:31:24;6.35;;;2.30;;
43817;SDS011;29868;47.360;18.984;2024-03-23T20:33:50;8.63;;;2.97;;
43817;SDS011;29868;47.360;18.984;2024-03-23T20:36:15;6.47;;;2.63;;
43817;SDS011;29868;47.360;18.984;2024-03-23T20:38:40;6.45;;;2.58;;
43817;SDS011;29868;47.360;18.984;2024-03-23T20:41:06;5.18;;;1.98;;
43817;SDS011;29868;47.360;18.984;2024-03-23T20:43:32;4.05;;;2.03;;
43817;SDS011;29868;47.360;18.984;2024-03-23T20:46:01;3.88;;;1.42;;
43817;SDS011;29868;47.360;18.984;2024-03-23T20:48:28;3.13;;;1.35;;
43817;SDS011;29868;47.360;18.984;2024-03-23T20:51:04;3.35;;;1.20;;
43817;SDS011;29868;47.360;18.984;2024-03-23T20:53:29;3.05;;;1.40;;
43817;SDS011;29868;47.360;18.984;2024-03-23T20:55:59;1.98;;;1.20;;
43817;SDS011;29868;47.360;18.984;2024-03-23T20:58:26;2.03;;;1.00;;
43817;SDS011;29868;47.360;18.984;2024-03-23T21:00:57;2.67;;;1.30;;
43817;SDS011;29868;47.360;18.984;2024-03-23T21:03:23;4.10;;;1.65;;
43817;SDS011;29868;47.360;18.984;2024-03-23T21:05:51;3.72;;;1.63;;
43817;SDS011;29868;47.360;18.984;2024-03-23T21:08:17;6.13;;;2.65;;
43817;SDS011;29868;47.360;18.984;2024-03-23T21:10:48;4.78;;;2.40;;
43817;SDS011;29868;47.360;18.984;2024-03-23T21:13:17;4.40;;;2.03;;
43817;SDS011;29868;47.360;18.984;2024-03-23T21:15:51;1.88;;;1.05;;
43817;SDS011;29868;47.360;18.984;2024-03-23T21:18:18;2.17;;;0.95;;
43817;SDS011;29868;47.360;18.984;2024-03-23T21:20:43;1.95;;;1.25;;
43817;SDS011;29868;47.360;18.984;2024-03-23T21:23:09;1.67;;;0.93;;
43817;SDS011;29868;47.360;18.984;2024-03-23T21:25:35;2.47;;;1.23;;
43817;SDS011;29868;47.360;18.984;2024-03-23T21:28:01;1.88;;;1.20;;
43817;SDS011;29868;47.360;18.984;2024-03-23T21:30:26;1.40;;;1.10;;
43817;SDS011;29868;47.360;18.984;2024-03-23T21:32:52;2.55;;;1.20;;
43817;SDS011;29868;47.360;18.984;2024-03-23T21:35:17;2.38;;;1.45;;
43817;SDS011;29868;47.360;18.984;2024-03-23T21:37:45;1.77;;;1.10;;
43817;SDS011;29868;47.360;18.984;2024-03-23T21:40:11;2.90;;;1.50;;
43817;SDS011;29868;47.360;18.984;2024-03-23T21:42:36;2.63;;;1.10;;
43817;SDS011;29868;47.360;18.984;2024-03-23T21:45:01;2.50;;;1.38;;
43817;SDS011;29868;47.360;18.984;2024-03-23T21:47:27;2.13;;;1.00;;
43817;SDS011;29868;47.360;18.984;2024-03-23T21:49:52;2.75;;;1.25;;
43817;SDS011;29868;47.360;18.984;2024-03-23T21:52:18;1.95;;;1.30;;
43817;SDS011;29868;47.360;18.984;2024-03-23T21:54:44;2.20;;;1.20;;
43817;SDS011;29868;47.360;18.984;2024-03-23T21:57:09;2.72;;;1.30;;
43817;SDS011;29868;47.360;18.984;2024-03-23T21:59:35;1.85;;;1.23;;
43817;SDS011;29868;47.360;18.984;2024-03-23T22:02:00;1.73;;;1.10;;
43817;SDS011;29868;47.360;18.984;2024-03-23T22:04:26;1.90;;;1.23;;
43817;SDS011;29868;47.360;18.984;2024-03-23T22:06:52;2.88;;;1.10;;
43817;SDS011;29868;47.360;18.984;2024-03-23T22:09:17;1.65;;;1.10;;
43817;SDS011;29868;47.360;18.984;2024-03-23T22:11:43;1.00;;;0.75;;
43817;SDS011;29868;47.360;18.984;2024-03-23T22:14:08;2.75;;;1.00;;
43817;SDS011;29868;47.360;18.984;2024-03-23T22:16:34;1.52;;;1.00;;
43817;SDS011;29868;47.360;18.984;2024-03-23T22:19:00;2.22;;;0.95;;
43817;SDS011;29868;47.360;18.984;2024-03-23T22:21:26;1.55;;;1.00;;
43817;SDS011;29868;47.360;18.984;2024-03-23T22:23:51;1.25;;;1.05;;
43817;SDS011;29868;47.360;18.984;2024-03-23T22:26:16;1.67;;;1.10;;
43817;SDS011;29868;47.360;18.984;2024-03-23T22:28:45;1.95;;;1.20;;
43817;SDS011;29868;47.360;18.984;2024-03-23T22:31:11;1.88;;;1.00;;
43817;SDS011;29868;47.360;18.984;2024-03-23T22:33:36;1.63;;;1.10;;
43817;SDS011;29868;47.360;18.984;2024-03-23T22:36:02;2.13;;;1.10;;
43817;SDS011;29868;47.360;18.984;2024-03-23T22:38:27;1.70;;;1.08;;
43817;SDS011;29868;47.360;18.984;2024-03-23T22:41:02;1.85;;;1.20;;
43817;SDS011;29868;47.360;18.984;2024-03-23T22:43:29;3.25;;;1.20;;
43817;SDS011;29868;47.360;18.984;2024-03-23T22:46:03;1.33;;;1.10;;
43817;SDS011;29868;47.360;18.984;2024-03-23T22:48:31;1.67;;;1.13;;
43817;SDS011;29868;47.360;18.984;2024-03-23T22:50:59;2.17;;;1.10;;
43817;SDS011;29868;47.360;18.984;2024-03-23T22:53:25;2.10;;;1.20;;
43817;SDS011;29868;47.360;18.984;2024-03-23T22:55:52;2.05;;;1.23;;
43817;SDS011;29868;47.360;18.984;2024-03-23T22:58:19;1.55;;;1.15;;
43817;SDS011;29868;47.360;18.984;2024-03-23T23:00:45;3.35;;;1.25;;
43817;SDS011;29868;47.360;18.984;2024-03-23T23:03:14;1.42;;;1.08;;
43817;SDS011;29868;47.360;18.984;2024-03-23T23:05:41;1.90;;;1.20;;
43817;SDS011;29868;47.360;18.984;2024-03-23T23:08:08;4.30;;;1.20;;
43817;SDS011;29868;47.360;18.984;2024-03-23T23:10:37;1.90;;;1.27;;
43817;SDS011;29868;47.360;18.984;2024-03-23T23:13:03;2.15;;;1.30;;
43817;SDS011;29868;47.360;18.984;2024-03-23T23:15:32;2.33;;;1.50;;
43817;SDS011;29868;47.360;18.984;2024-03-23T23:17:57;2.42;;;1.27;;
43817;SDS011;29868;47.360;18.984;2024-03-23T23:20:22;1.75;;;1.00;;
43817;SDS011;29868;47.360;18.984;2024-03-23T23:22:48;3.00;;;1.15;;
43817;SDS011;29868;47.360;18.984;2024-03-23T23:25:13;2.53;;;1.10;;
43817;SDS011;29868;47.360;18.984;2024-03-23T23:27:39;3.20;;;1.20;;
43817;SDS011;29868;47.360;18.984;2024-03-23T23:30:06;2.28;;;1.20;;
43817;SDS011;29868;47.360;18.984;2024-03-23T23:32:33;1.50;;;0.98;;
43817;SDS011;29868;47.360;18.984;2024-03-23T23:34:59;3.15;;;1.20;;
43817;SDS011;29868;47.360;18.984;2024-03-23T23:37:24;2.10;;;1.02;;
43817;SDS011;29868;47.360;18.984;2024-03-23T23:39:51;2.38;;;1.05;;
43817;SDS011;29868;47.360;18.984;2024-03-23T23:42:16;2.17;;;1.20;;
43817;SDS011;29868;47.360;18.984;2024-03-23T23:44:42;2.20;;;1.10;;
43817;SDS011;29868;47.360;18.984;2024-03-23T23:47:07;1.30;;;1.13;;
43817;SDS011;29868;47.360;18.984;2024-03-23T23:49:33;2.42;;;1.23;;
43817;SDS011;29868;47.360;18.984;2024-03-23T23:51:58;1.63;;;1.00;;
43817;SDS011;29868;47.360;18.984;2024-03-23T23:54:23;1.20;;;1.10;;
43817;SDS011;29868;47.360;18.984;2024-03-23T23:56:49;1.98;;;1.15;;
43817;SDS011;29868;47.360;18.984;2024-03-23T23:59:14;3.75;;;1.50;;
